Time;durP1;ratioP1;P1;durP2;ratioP2;P2;SDS_P1;SDS_P2;PMS_P1;PMS_P2;Temp;Humidity;BMP_temperature;BMP_pressure;BME280_temperature;BME280_humidity;BME280_pressure;Samples;Min_cycle;Max_cycle;Signal;HPM_P1;HPM_P2
2022/12/05 00:01:26;;;;;;;9.90;5.40;;;;;;;;;;1694648;84;21536;-62
2022/12/05 00:03:55;;;;;;;11.95;4.15;;;;;;;;;;1694490;84;21576;-62
2022/12/05 00:06:22;;;;;;;9.50;4.30;;;;;;;;;;1694785;84;21627;-62
2022/12/05 00:08:48;;;;;;;2.52;1.85;;;;;;;;;;1694864;84;21921;-62
2022/12/05 00:11:17;;;;;;;6.05;2.87;;;;;;;;;;1694626;84;21584;-62
2022/12/05 00:13:43;;;;;;;10.10;5.60;;;;;;;;;;1694352;84;21568;-62
2022/12/05 00:16:12;;;;;;;14.78;6.83;;;;;;;;;;1695011;84;21548;-62
2022/12/05 00:18:38;;;;;;;5.83;3.22;;;;;;;;;;1694550;84;21540;-61
2022/12/05 00:21:04;;;;;;;10.75;4.53;;;;;;;;;;1694594;84;21541;-61
2022/12/05 00:23:31;;;;;;;4.40;3.25;;;;;;;;;;1694734;84;21093;-63
2022/12/05 00:26:00;;;;;;;12.43;6.22;;;;;;;;;;1694404;84;21556;-62
2022/12/05 00:28:26;;;;;;;8.50;5.05;;;;;;;;;;1694513;84;21513;-62
2022/12/05 00:30:52;;;;;;;21.87;8.43;;;;;;;;;;1694509;84;21589;-62
2022/12/05 00:33:18;;;;;;;63.63;17.02;;;;;;;;;;1694636;84;21450;-61
2022/12/05 00:35:43;;;;;;;217.50;44.70;;;;;;;;;;1694570;84;21061;-62
2022/12/05 00:38:09;;;;;;;16.75;6.47;;;;;;;;;;1694973;84;21132;-63
2022/12/05 00:40:35;;;;;;;74.37;18.35;;;;;;;;;;1694948;84;21069;-63
2022/12/05 00:43:01;;;;;;;44.23;10.53;;;;;;;;;;1694968;84;21632;-62
2022/12/05 00:45:27;;;;;;;25.57;7.22;;;;;;;;;;1694083;84;21453;-62
2022/12/05 00:47:53;;;;;;;30.50;10.63;;;;;;;;;;1694186;83;21109;-62
2022/12/05 00:50:19;;;;;;;54.98;15.40;;;;;;;;;;1694450;84;21129;-63
2022/12/05 00:52:45;;;;;;;96.80;29.27;;;;;;;;;;1694691;83;21057;-62
2022/12/05 00:55:11;;;;;;;12.15;4.97;;;;;;;;;;1694475;84;21588;-63
2022/12/05 00:57:36;;;;;;;43.90;14.47;;;;;;;;;;1694867;84;21137;-63
2022/12/05 01:00:04;;;;;;;7.85;3.85;;;;;;;;;;1694449;84;21180;-61
2022/12/05 01:02:30;;;;;;;13.83;6.78;;;;;;;;;;1694190;84;21541;-61
2022/12/05 01:04:56;;;;;;;26.62;10.35;;;;;;;;;;1692802;84;21628;-61
2022/12/05 01:07:22;;;;;;;13.20;4.83;;;;;;;;;;1693393;84;20999;-62
2022/12/05 01:09:48;;;;;;;47.25;15.63;;;;;;;;;;1692891;84;21541;-62
2022/12/05 01:12:13;;;;;;;20.15;8.23;;;;;;;;;;1693265;84;21467;-64
2022/12/05 01:14:39;;;;;;;23.45;9.80;;;;;;;;;;1693017;84;21096;-62
2022/12/05 01:17:05;;;;;;;44.85;14.53;;;;;;;;;;1692768;84;21114;-61
2022/12/05 01:19:31;;;;;;;15.10;5.33;;;;;;;;;;1693097;84;21138;-62
2022/12/05 01:21:58;;;;;;;26.90;9.93;;;;;;;;;;1693146;84;21667;-62
2022/12/05 01:24:25;;;;;;;32.00;10.38;;;;;;;;;;1692873;84;21624;-62
2022/12/05 01:26:51;;;;;;;32.90;12.25;;;;;;;;;;1692869;84;21549;-63
2022/12/05 01:29:20;;;;;;;44.45;16.73;;;;;;;;;;1693301;84;21585;-62
2022/12/05 01:31:46;;;;;;;16.40;7.95;;;;;;;;;;1693000;84;21510;-62
2022/12/05 01:34:15;;;;;;;13.10;3.87;;;;;;;;;;1693151;84;21609;-63
2022/12/05 01:36:41;;;;;;;10.13;4.60;;;;;;;;;;1693306;84;21637;-62
2022/12/05 01:39:08;;;;;;;19.37;8.93;;;;;;;;;;1693344;84;21640;-61
2022/12/05 01:41:37;;;;;;;33.80;11.50;;;;;;;;;;1692845;84;21669;-62
2022/12/05 01:44:16;;;;;;;24.90;11.40;;;;;;;;;;1693420;84;21133;-61
2022/12/05 01:46:47;;;;;;;18.37;8.28;;;;;;;;;;1693155;84;21655;-61
2022/12/05 01:49:35;;;;;;;19.07;8.85;;;;;;;;;;1710420;83;21062;-62
2022/12/05 01:52:04;;;;;;;11.88;5.75;;;;;;;;;;1776873;80;21567;-62
2022/12/05 01:54:35;;;;;;;8.20;3.90;;;;;;;;;;1774974;80;21633;-62
2022/12/05 01:57:04;;;;;;;17.82;7.70;;;;;;;;;;1776560;80;21504;-62
2022/12/05 01:59:32;;;;;;;;;;;;;;;;;;1779198;80;21080;-63
2022/12/05 02:01:58;;;;;;;14.58;6.03;;;;;;;;;;1738622;81;20499;-62
2022/12/05 02:04:24;;;;;;;13.88;6.83;;;;;;;;;;1777011;80;21065;-62
2022/12/05 02:06:50;;;;;;;12.73;6.75;;;;;;;;;;1739599;81;21567;-62
2022/12/05 02:09:15;;;;;;;12.20;6.60;;;;;;;;;;1739541;81;21496;-63
2022/12/05 02:11:54;;;;;;;6.95;3.65;;;;;;;;;;1776596;80;21539;-62
2022/12/05 02:14:33;;;;;;;17.87;7.12;;;;;;;;;;1739700;81;21100;-64
2022/12/05 02:17:08;;;;;;;10.75;5.83;;;;;;;;;;1771861;80;21618;-61
2022/12/05 02:19:53;;;;;;;10.88;5.37;;;;;;;;;;1738957;81;21620;-62
2022/12/05 02:22:52;;;;;;;12.20;5.37;;;;;;;;;;1775988;79;21575;-62
2022/12/05 02:25:39;;;;;;;11.50;5.15;;;;;;;;;;1739810;81;21576;-61
2022/12/05 02:28:11;;;;;;;4.05;2.10;;;;;;;;;;1739419;81;21550;-62
2022/12/05 02:30:53;;;;;;;15.40;8.13;;;;;;;;;;1739363;82;21650;-63
2022/12/05 02:33:28;;;;;;;11.60;6.50;;;;;;;;;;1776901;80;21505;-61
2022/12/05 02:36:18;;;;;;;13.32;6.87;;;;;;;;;;1738046;82;21619;-62
2022/12/05 02:38:57;;;;;;;;;;;;;;;;;;1779317;80;21662;-61
2022/12/05 02:41:39;;;;;;;16.80;8.05;;;;;;;;;;1739618;82;20175;-62
2022/12/05 02:44:24;;;;;;;19.55;9.05;;;;;;;;;;1776745;80;21675;-62
2022/12/05 02:46:52;;;;;;;16.17;6.30;;;;;;;;;;1738895;81;21085;-61
2022/12/05 02:49:22;;;;;;;19.95;8.63;;;;;;;;;;1777358;80;21582;-61
2022/12/05 02:51:55;;;;;;;14.60;6.22;;;;;;;;;;1739223;82;21544;-64
2022/12/05 02:54:24;;;;;;;13.98;7.42;;;;;;;;;;1776772;80;21571;-62
2022/12/05 02:56:52;;;;;;;14.90;6.42;;;;;;;;;;1739895;81;21544;-63
2022/12/05 02:59:18;;;;;;;23.30;10.43;;;;;;;;;;1777037;80;21476;-62
2022/12/05 03:01:46;;;;;;;20.88;10.53;;;;;;;;;;1739749;81;21109;-62
2022/12/05 03:04:13;;;;;;;14.80;8.20;;;;;;;;;;1776939;80;21073;-62
2022/12/05 03:06:49;;;;;;;15.03;8.03;;;;;;;;;;1776494;80;21111;-62
2022/12/05 03:09:31;;;;;;;16.55;8.33;;;;;;;;;;1739715;82;21505;-62
2022/12/05 03:12:16;;;;;;;23.22;11.73;;;;;;;;;;1776563;80;21552;-62
2022/12/05 03:14:45;;;;;;;10.48;5.40;;;;;;;;;;1739785;81;21663;-64
2022/12/05 03:17:15;;;;;;;20.75;10.05;;;;;;;;;;1776934;80;21529;-63
2022/12/05 03:19:57;;;;;;;10.93;4.87;;;;;;;;;;1739402;81;21832;-62
2022/12/05 03:22:27;;;;;;;8.13;4.60;;;;;;;;;;1739307;82;21521;-62
2022/12/05 03:24:53;;;;;;;20.27;10.78;;;;;;;;;;1776799;80;21535;-62
2022/12/05 03:27:26;;;;;;;10.43;4.83;;;;;;;;;;1777014;80;21583;-62
2022/12/05 03:30:02;;;;;;;4.50;2.55;;;;;;;;;;1776682;80;21598;-63
2022/12/05 03:33:03;;;;;;;19.37;9.80;;;;;;;;;;1740019;81;21615;-62
2022/12/05 03:35:36;;;;;;;13.60;5.90;;;;;;;;;;1776759;80;21591;-62
2022/12/05 03:38:12;;;;;;;13.93;6.58;;;;;;;;;;1739715;81;21928;-63
2022/12/05 03:40:58;;;;;;;12.68;6.62;;;;;;;;;;1777036;80;21553;-63
2022/12/05 03:43:46;;;;;;;15.32;7.83;;;;;;;;;;1739595;82;21504;-63
2022/12/05 03:46:24;;;;;;;15.33;6.77;;;;;;;;;;1776869;80;21706;-64
2022/12/05 03:48:57;;;;;;;8.23;4.97;;;;;;;;;;1739835;81;21571;-63
2022/12/05 03:51:26;;;;;;;12.80;7.58;;;;;;;;;;1776571;80;21941;-63
2022/12/05 03:53:59;;;;;;;11.43;5.25;;;;;;;;;;1739494;81;21105;-63
2022/12/05 03:56:30;;;;;;;13.40;6.62;;;;;;;;;;1737071;81;21579;-63
2022/12/05 03:59:00;;;;;;;9.88;5.80;;;;;;;;;;1738798;81;21636;-62
2022/12/05 04:01:29;;;;;;;9.20;5.42;;;;;;;;;;1776261;80;21598;-62
2022/12/05 04:03:58;;;;;;;11.90;6.67;;;;;;;;;;1739613;81;21640;-63
2022/12/05 04:06:34;;;;;;;11.80;6.72;;;;;;;;;;1776008;80;21516;-62
2022/12/05 04:09:07;;;;;;;6.97;4.67;;;;;;;;;;1776799;80;21628;-63
2022/12/05 04:11:36;;;;;;;6.37;2.20;;;;;;;;;;1739422;81;22285;-62
2022/12/05 04:14:18;;;;;;;7.53;4.33;;;;;;;;;;1776877;80;21535;-62
2022/12/05 04:17:03;;;;;;;3.70;2.65;;;;;;;;;;1739983;81;21085;-63
2022/12/05 04:22:35;;;;;;;6.53;4.00;;;;;;;;;;1739553;81;21591;-64
2022/12/05 04:28:09;;;;;;;9.13;5.22;;;;;;;;;;1776838;80;21621;-64
2022/12/05 04:30:54;;;;;;;10.98;5.42;;;;;;;;;;1739774;81;21694;-64
2022/12/05 04:33:24;;;;;;;12.88;6.12;;;;;;;;;;1775624;80;21630;-63
2022/12/05 04:35:59;;;;;;;10.65;6.33;;;;;;;;;;1738930;81;21817;-64
2022/12/05 04:38:28;;;;;;;10.40;6.15;;;;;;;;;;1776783;80;21017;-62
2022/12/05 04:41:04;;;;;;;11.08;5.70;;;;;;;;;;1739788;81;21560;-62
2022/12/05 04:43:33;;;;;;;5.33;3.02;;;;;;;;;;1739548;82;21835;-62
2022/12/05 04:46:02;;;;;;;10.55;5.90;;;;;;;;;;1777258;80;21072;-62
2022/12/05 04:48:28;;;;;;;9.55;5.25;;;;;;;;;;1740068;81;21545;-62
2022/12/05 04:50:56;;;;;;;4.62;3.15;;;;;;;;;;1739605;82;21591;-64
2022/12/05 04:53:27;;;;;;;7.00;3.62;;;;;;;;;;1739763;81;20998;-63
2022/12/05 04:55:57;;;;;;;8.95;4.87;;;;;;;;;;1776788;80;21567;-62
2022/12/05 04:58:25;;;;;;;8.53;3.62;;;;;;;;;;1777035;80;21560;-63
2022/12/05 05:00:58;;;;;;;6.03;4.08;;;;;;;;;;1777170;80;21582;-63
2022/12/05 05:03:52;;;;;;;9.78;5.35;;;;;;;;;;1739796;81;21691;-64
2022/12/05 05:06:18;;;;;;;9.50;4.70;;;;;;;;;;1776995;80;21606;-63
2022/12/05 05:08:49;;;;;;;8.68;4.22;;;;;;;;;;1739593;81;21492;-63
2022/12/05 05:11:22;;;;;;;13.80;4.83;;;;;;;;;;1776916;80;21005;-63
2022/12/05 05:13:48;;;;;;;7.97;4.42;;;;;;;;;;1739822;81;21584;-62
2022/12/05 05:16:19;;;;;;;2.58;1.77;;;;;;;;;;1739990;82;21619;-63
2022/12/05 05:18:46;;;;;;;7.00;4.30;;;;;;;;;;1776571;80;21599;-62
2022/12/05 05:21:22;;;;;;;4.28;2.75;;;;;;;;;;1776833;80;21587;-63
2022/12/05 05:23:48;;;;;;;10.10;5.08;;;;;;;;;;1739706;82;21617;-63
2022/12/05 05:26:15;;;;;;;9.80;5.83;;;;;;;;;;1776628;80;21097;-62
2022/12/05 05:28:41;;;;;;;8.38;4.90;;;;;;;;;;1740082;81;21570;-62
2022/12/05 05:31:07;;;;;;;6.53;3.50;;;;;;;;;;1739702;82;21592;-62
2022/12/05 05:33:33;;;;;;;4.83;3.20;;;;;;;;;;1776616;80;21560;-62
2022/12/05 05:36:07;;;;;;;5.60;3.42;;;;;;;;;;1739900;81;21454;-63
2022/12/05 05:38:37;;;;;;;5.10;2.77;;;;;;;;;;1777180;80;21103;-63
2022/12/05 05:41:04;;;;;;;7.35;4.08;;;;;;;;;;1739715;81;21575;-62
2022/12/05 05:43:31;;;;;;;9.80;4.67;;;;;;;;;;1777361;80;21611;-63
2022/12/05 05:45:57;;;;;;;4.85;2.47;;;;;;;;;;1739959;81;21616;-62
2022/12/05 05:48:23;;;;;;;2.37;1.62;;;;;;;;;;1776507;80;21548;-64
2022/12/05 05:50:49;;;;;;;7.50;3.95;;;;;;;;;;1776620;80;21586;-62
2022/12/05 05:53:14;;;;;;;6.58;3.77;;;;;;;;;;1739606;81;21025;-63
2022/12/05 05:55:41;;;;;;;6.40;3.45;;;;;;;;;;1739745;81;21778;-63
2022/12/05 05:58:07;;;;;;;3.08;2.22;;;;;;;;;;1777072;80;21196;-64
2022/12/05 06:00:34;;;;;;;7.03;3.35;;;;;;;;;;1776692;80;21123;-64
2022/12/05 06:02:59;;;;;;;7.83;4.75;;;;;;;;;;1739693;82;21441;-65
2022/12/05 06:05:25;;;;;;;8.20;4.70;;;;;;;;;;1739379;81;21612;-64
2022/12/05 06:07:52;;;;;;;8.65;4.90;;;;;;;;;;1739322;82;21590;-63
2022/12/05 06:10:18;;;;;;;9.75;4.95;;;;;;;;;;1739580;82;21532;-62
2022/12/05 06:12:44;;;;;;;6.55;3.70;;;;;;;;;;1776934;80;21519;-64
2022/12/05 06:15:10;;;;;;;10.10;4.72;;;;;;;;;;1739638;81;21616;-63
2022/12/05 06:17:36;;;;;;;9.65;5.92;;;;;;;;;;1776719;80;21583;-64
2022/12/05 06:20:04;;;;;;;8.48;5.10;;;;;;;;;;1777017;80;21515;-65
2022/12/05 06:22:30;;;;;;;6.95;4.08;;;;;;;;;;1739455;82;21528;-63
2022/12/05 06:24:55;;;;;;;10.00;4.72;;;;;;;;;;1739329;81;21639;-63
2022/12/05 06:27:21;;;;;;;6.17;3.60;;;;;;;;;;1739753;81;21591;-62
2022/12/05 06:29:49;;;;;;;7.50;4.65;;;;;;;;;;1739103;81;21066;-64
2022/12/05 06:32:15;;;;;;;11.60;5.33;;;;;;;;;;1739864;81;21520;-63
2022/12/05 06:34:41;;;;;;;9.23;4.35;;;;;;;;;;1739283;81;21597;-63
2022/12/05 06:37:07;;;;;;;11.73;5.95;;;;;;;;;;1739578;81;21548;-62
2022/12/05 06:39:32;;;;;;;9.65;4.67;;;;;;;;;;1739524;82;21649;-62
2022/12/05 06:41:58;;;;;;;12.45;6.03;;;;;;;;;;1739903;82;22210;-62
2022/12/05 06:44:25;;;;;;;7.10;4.30;;;;;;;;;;1739422;81;21586;-63
2022/12/05 06:46:53;;;;;;;7.87;4.40;;;;;;;;;;1739295;81;21571;-62
2022/12/05 06:49:20;;;;;;;8.93;4.92;;;;;;;;;;1776707;80;21559;-63
2022/12/05 06:51:45;;;;;;;6.62;4.03;;;;;;;;;;1739286;81;21599;-64
2022/12/05 06:54:12;;;;;;;8.38;4.65;;;;;;;;;;1776889;80;21543;-62
2022/12/05 06:56:39;;;;;;;11.50;5.90;;;;;;;;;;1740255;80;21125;-62
2022/12/05 06:59:05;;;;;;;8.15;4.53;;;;;;;;;;1744523;80;21108;-62
2022/12/05 07:01:41;;;;;;;10.65;4.35;;;;;;;;;;1654690;79;10000301;-62
2022/12/05 07:04:16;;;;;;;11.63;5.28;;;;;;;;;;1739650;81;21528;-62
2022/12/05 07:06:44;;;;;;;6.92;3.50;;;;;;;;;;1776786;80;21092;-62
2022/12/05 07:09:11;;;;;;;8.68;3.67;;;;;;;;;;1740135;81;21603;-63
2022/12/05 07:11:36;;;;;;;6.30;3.55;;;;;;;;;;1777038;80;21219;-63
2022/12/05 07:14:04;;;;;;;2.83;2.12;;;;;;;;;;1777354;80;21107;-62
2022/12/05 07:16:30;;;;;;;6.47;3.42;;;;;;;;;;1739525;81;21524;-62
2022/12/05 07:18:56;;;;;;;7.42;3.98;;;;;;;;;;1739513;82;21175;-62
2022/12/05 07:21:22;;;;;;;6.15;3.90;;;;;;;;;;1739590;81;21458;-62
2022/12/05 07:23:51;;;;;;;6.78;4.05;;;;;;;;;;1739524;82;21611;-62
2022/12/05 07:26:18;;;;;;;;;;;;;;;;;;1779953;80;21511;-62
2022/12/05 07:28:45;;;;;;;6.78;3.92;;;;;;;;;;1776771;80;20469;-62
2022/12/05 07:31:14;;;;;;;4.30;2.55;;;;;;;;;;1739770;81;21938;-62
2022/12/05 07:33:40;;;;;;;7.78;4.55;;;;;;;;;;1776941;80;21096;-63
2022/12/05 07:36:09;;;;;;;2.27;1.45;;;;;;;;;;1777021;80;21040;-62
2022/12/05 07:38:36;;;;;;;5.95;3.37;;;;;;;;;;1776934;80;21503;-63
2022/12/05 07:41:11;;;;;;;9.78;5.08;;;;;;;;;;1777135;80;21539;-63
2022/12/05 07:43:37;;;;;;;9.78;5.50;;;;;;;;;;1738057;81;21093;-63
2022/12/05 07:46:05;;;;;;;9.78;5.80;;;;;;;;;;1739834;81;21529;-63
2022/12/05 07:48:31;;;;;;;6.80;3.35;;;;;;;;;;1776677;80;21508;-63
2022/12/05 07:51:02;;;;;;;8.80;5.25;;;;;;;;;;1739287;81;21140;-62
2022/12/05 07:53:29;;;;;;;9.23;4.72;;;;;;;;;;1777289;80;21854;-63
2022/12/05 07:55:58;;;;;;;6.42;3.92;;;;;;;;;;1739641;82;21548;-63
2022/12/05 07:58:24;;;;;;;10.23;5.22;;;;;;;;;;1732421;80;21647;-62
2022/12/05 08:00:50;;;;;;;6.85;4.10;;;;;;;;;;1776704;80;21504;-63
2022/12/05 08:03:16;;;;;;;8.05;3.72;;;;;;;;;;1776788;80;21559;-63
2022/12/05 08:05:42;;;;;;;7.22;3.65;;;;;;;;;;1739551;82;21603;-63
2022/12/05 08:08:08;;;;;;;9.58;4.60;;;;;;;;;;1777141;80;21178;-62
2022/12/05 08:10:34;;;;;;;8.20;4.30;;;;;;;;;;1739724;81;21552;-63
2022/12/05 08:13:00;;;;;;;4.40;3.25;;;;;;;;;;1776814;80;21543;-63
2022/12/05 08:15:26;;;;;;;7.45;3.50;;;;;;;;;;1739698;82;21520;-63
2022/12/05 08:17:52;;;;;;;5.72;2.83;;;;;;;;;;1739453;81;21606;-63
2022/12/05 08:20:17;;;;;;;7.28;4.67;;;;;;;;;;1739662;82;21061;-64
2022/12/05 08:22:43;;;;;;;9.18;5.42;;;;;;;;;;1748310;80;21120;-63
2022/12/05 08:25:09;;;;;;;6.87;4.15;;;;;;;;;;1739979;82;21675;-63
2022/12/05 08:27:35;;;;;;;6.47;4.17;;;;;;;;;;1776996;80;21496;-63
2022/12/05 08:30:01;;;;;;;8.20;4.85;;;;;;;;;;1705234;80;68258;-64
2022/12/05 08:32:27;;;;;;;9.60;4.40;;;;;;;;;;1662761;84;21613;-62
2022/12/05 08:34:53;;;;;;;10.20;5.28;;;;;;;;;;1706585;83;21555;-62
2022/12/05 08:37:20;;;;;;;9.38;4.72;;;;;;;;;;1660975;84;21565;-63
2022/12/05 08:39:45;;;;;;;10.50;5.58;;;;;;;;;;1706920;83;21563;-63
2022/12/05 08:42:11;;;;;;;10.30;5.35;;;;;;;;;;1660822;84;21612;-62
2022/12/05 08:44:37;;;;;;;11.83;5.28;;;;;;;;;;1707161;83;21865;-63
2022/12/05 08:47:03;;;;;;;8.83;4.83;;;;;;;;;;1660641;84;21609;-63
2022/12/05 08:49:28;;;;;;;5.60;3.90;;;;;;;;;;1705640;82;21672;-62
2022/12/05 08:51:54;;;;;;;7.03;4.58;;;;;;;;;;1660690;84;21533;-63
2022/12/05 08:54:20;;;;;;;4.95;2.72;;;;;;;;;;1706938;83;22055;-62
2022/12/05 08:56:51;;;;;;;10.10;5.33;;;;;;;;;;1659141;86;21573;-63
2022/12/05 08:59:18;;;;;;;5.45;3.35;;;;;;;;;;1707225;83;21552;-63
2022/12/05 09:01:44;;;;;;;6.28;4.12;;;;;;;;;;1660430;86;21601;-62
2022/12/05 09:04:11;;;;;;;10.32;4.35;;;;;;;;;;1703125;83;58416;-63
2022/12/05 09:06:38;;;;;;;4.53;2.75;;;;;;;;;;1693309;84;21587;-63
2022/12/05 09:09:07;;;;;;;7.67;4.35;;;;;;;;;;1692506;84;21642;-63
2022/12/05 09:11:35;;;;;;;11.37;5.20;;;;;;;;;;1692686;84;21582;-62
2022/12/05 09:14:02;;;;;;;12.13;5.90;;;;;;;;;;1692939;84;21638;-62
2022/12/05 09:16:33;;;;;;;8.05;4.70;;;;;;;;;;1692446;84;21617;-64
2022/12/05 09:18:59;;;;;;;6.53;3.85;;;;;;;;;;1692535;84;21724;-62
2022/12/05 09:21:29;;;;;;;8.88;5.62;;;;;;;;;;1692731;84;21810;-63
2022/12/05 09:23:57;;;;;;;9.80;5.50;;;;;;;;;;1692751;84;21736;-63
2022/12/05 09:26:24;;;;;;;5.60;3.62;;;;;;;;;;1692861;84;21547;-63
2022/12/05 09:28:51;;;;;;;7.90;4.42;;;;;;;;;;1692597;84;21638;-63
2022/12/05 09:31:19;;;;;;;7.22;5.12;;;;;;;;;;1692801;84;21516;-64
2022/12/05 09:33:46;;;;;;;9.10;4.67;;;;;;;;;;1736557;82;89055;-62
2022/12/05 09:36:30;;;;;;;10.32;5.05;;;;;;;;;;1743345;82;21531;-62
2022/12/05 09:38:59;;;;;;;6.37;4.12;;;;;;;;;;1743186;82;21571;-63
2022/12/05 09:44:18;;;;;;;11.83;5.47;;;;;;;;;;1677724;82;21650;-63
2022/12/05 09:46:57;;;;;;;7.60;4.78;;;;;;;;;;1742301;82;21575;-63
2022/12/05 09:49:23;;;;;;;13.98;8.58;;;;;;;;;;1743246;82;21674;-63
2022/12/05 09:51:51;;;;;;;30.02;13.85;;;;;;;;;;1743138;80;21953;-62
2022/12/05 09:54:17;;;;;;;57.43;20.02;;;;;;;;;;1743186;82;21563;-63
2022/12/05 09:56:44;;;;;;;139.50;36.17;;;;;;;;;;1742840;82;21561;-63
2022/12/05 09:59:14;;;;;;;377.38;103.62;;;;;;;;;;1732768;82;55717;-63
2022/12/05 10:02:27;;;;;;;266.40;77.78;;;;;;;;;;1916983;74;22963;-63
2022/12/05 10:05:05;;;;;;;81.95;21.90;;;;;;;;;;1799369;76;61793;-62
2022/12/05 10:07:38;;;;;;;34.83;11.77;;;;;;;;;;1760569;79;21084;-62
2022/12/05 10:10:41;;;;;;;49.20;17.20;;;;;;;;;;1761370;80;21041;-62
2022/12/05 10:13:40;;;;;;;113.52;34.20;;;;;;;;;;1761245;81;21373;-62
2022/12/05 10:16:13;;;;;;;43.02;17.62;;;;;;;;;;1779446;80;21778;-63
2022/12/05 10:18:45;;;;;;;38.63;15.23;;;;;;;;;;1778635;80;21658;-63
2022/12/05 10:21:21;;;;;;;16.20;7.90;;;;;;;;;;1778119;79;21618;-63
2022/12/05 10:23:56;;;;;;;46.05;19.35;;;;;;;;;;1778991;80;21606;-63
2022/12/05 10:26:26;;;;;;;17.48;8.43;;;;;;;;;;1777886;80;21085;-63
2022/12/05 10:29:08;;;;;;;48.25;13.58;;;;;;;;;;1752138;79;68320;-62
2022/12/05 10:31:37;;;;;;;48.23;14.10;;;;;;;;;;1756058;80;21512;-63
2022/12/05 10:34:24;;;;;;;45.20;13.25;;;;;;;;;;1757536;81;21599;-62
2022/12/05 10:36:54;;;;;;;85.90;21.87;;;;;;;;;;1756227;80;21197;-62
2022/12/05 10:39:20;;;;;;;66.12;18.95;;;;;;;;;;1755582;80;21543;-63
2022/12/05 10:41:46;;;;;;;71.45;18.67;;;;;;;;;;1754905;80;21567;-62
2022/12/05 10:44:12;;;;;;;73.80;19.95;;;;;;;;;;1755000;81;21080;-63
2022/12/05 10:46:38;;;;;;;85.67;22.32;;;;;;;;;;1754750;81;21044;-63
2022/12/05 10:49:12;;;;;;;26.75;10.65;;;;;;;;;;1725165;83;21037;-62
2022/12/05 10:51:38;;;;;;;42.17;12.85;;;;;;;;;;1722999;83;21516;-62
2022/12/05 10:54:14;;;;;;;13.05;7.30;;;;;;;;;;1754943;81;21555;-62
2022/12/05 10:56:46;;;;;;;18.62;7.50;;;;;;;;;;1754678;81;21676;-62
2022/12/05 10:59:15;;;;;;;13.18;6.65;;;;;;;;;;1754971;81;21484;-62
2022/12/05 11:01:53;;;;;;;35.60;12.95;;;;;;;;;;1754735;81;21224;-63
2022/12/05 11:04:42;;;;;;;38.88;11.35;;;;;;;;;;1755238;81;21507;-64
2022/12/05 11:07:11;;;;;;;32.10;14.43;;;;;;;;;;1754648;81;21588;-64
2022/12/05 11:09:38;;;;;;;34.80;12.35;;;;;;;;;;1749028;81;21623;-62
2022/12/05 11:12:19;;;;;;;28.92;11.43;;;;;;;;;;1754785;81;21204;-62
2022/12/05 11:15:01;;;;;;;26.90;11.03;;;;;;;;;;1753890;81;21618;-63
2022/12/05 11:17:36;;;;;;;16.85;7.17;;;;;;;;;;1754683;81;21598;-63
2022/12/05 11:20:05;;;;;;;26.37;9.73;;;;;;;;;;1765164;80;47979;-62
2022/12/05 11:22:34;;;;;;;61.92;20.35;;;;;;;;;;1754762;80;21666;-62
2022/12/05 11:25:02;;;;;;;23.18;10.15;;;;;;;;;;1768622;80;21570;-63
2022/12/05 11:27:30;;;;;;;56.33;17.82;;;;;;;;;;1765509;80;21059;-62
2022/12/05 11:30:03;;;;;;;14.10;7.22;;;;;;;;;;1768299;80;21638;-61
2022/12/05 11:32:31;;;;;;;15.38;7.10;;;;;;;;;;1768544;80;21551;-62
2022/12/05 11:35:16;;;;;;;15.93;9.95;;;;;;;;;;1768449;80;21593;-61
2022/12/05 11:37:48;;;;;;;17.05;7.33;;;;;;;;;;1768527;80;21545;-62
2022/12/05 11:40:17;;;;;;;23.73;11.53;;;;;;;;;;1768250;80;21012;-63
2022/12/05 11:43:00;;;;;;;;;;;;;;;;;;1770979;80;21130;-62
2022/12/05 11:45:33;;;;;;;11.33;5.75;;;;;;;;;;1767163;80;20485;-63
2022/12/05 11:48:21;;;;;;;19.30;9.68;;;;;;;;;;1766427;80;21542;-62
2022/12/05 11:51:06;;;;;;;;;;;;;;;;;;1725972;80;21653;-63
2022/12/05 11:53:47;;;;;;;12.65;6.78;;;;;;;;;;1768284;80;20130;-62
2022/12/05 11:56:43;;;;;;;17.77;9.40;;;;;;;;;;1767900;80;21571;-63
2022/12/05 11:59:13;;;;;;;21.48;9.18;;;;;;;;;;1767627;80;21620;-63
2022/12/05 12:01:45;;;;;;;20.80;9.68;;;;;;;;;;1761729;80;21590;-62
2022/12/05 12:04:49;;;;;;;20.52;11.38;;;;;;;;;;1756141;81;21601;-62
2022/12/05 12:07:34;;;;;;;17.30;9.78;;;;;;;;;;1760867;81;21634;-61
2022/12/05 12:10:16;;;;;;;23.22;13.20;;;;;;;;;;1764077;79;72332;-62
2022/12/05 12:13:02;;;;;;;33.40;13.65;;;;;;;;;;1744779;81;21582;-62
2022/12/05 12:16:00;;;;;;;112.08;36.20;;;;;;;;;;1745601;81;21559;-62
2022/12/05 12:18:51;;;;;;;71.20;24.75;;;;;;;;;;1744813;81;21029;-62
2022/12/05 12:21:20;;;;;;;94.40;28.75;;;;;;;;;;1744411;81;21602;-63
2022/12/05 12:24:14;;;;;;;106.97;30.40;;;;;;;;;;1745236;81;21551;-61
2022/12/05 12:26:51;;;;;;;121.95;33.13;;;;;;;;;;1717610;81;70774;-62
2022/12/05 12:29:29;;;;;;;86.70;26.17;;;;;;;;;;1714309;83;21565;-62
2022/12/05 12:31:58;;;;;;;30.88;13.20;;;;;;;;;;1713777;83;21105;-61
2022/12/05 12:34:40;;;;;;;22.70;9.28;;;;;;;;;;1714130;83;21485;-61
2022/12/05 12:37:27;;;;;;;49.00;14.93;;;;;;;;;;1714178;83;21652;-63
2022/12/05 12:40:15;;;;;;;26.00;9.50;;;;;;;;;;1713623;83;21620;-61
2022/12/05 12:42:54;;;;;;;25.45;8.60;;;;;;;;;;1742366;80;53612;-62
2022/12/05 12:45:57;;;;;;;37.55;11.05;;;;;;;;;;1774972;80;21564;-61
2022/12/05 12:48:33;;;;;;;22.50;7.35;;;;;;;;;;1774557;80;21148;-61
2022/12/05 12:51:01;;;;;;;33.60;10.18;;;;;;;;;;1774308;80;21148;-62
2022/12/05 12:53:46;;;;;;;36.53;12.17;;;;;;;;;;1774857;80;21598;-62
2022/12/05 12:56:19;;;;;;;102.62;25.88;;;;;;;;;;1774060;80;21516;-61
2022/12/05 12:58:54;;;;;;;79.50;20.05;;;;;;;;;;1774532;80;21083;-61
2022/12/05 13:01:48;;;;;;;56.42;13.62;;;;;;;;;;1768337;79;21631;-61
2022/12/05 13:04:39;;;;;;;75.25;18.55;;;;;;;;;;1754282;81;21583;-61
2022/12/05 13:07:17;;;;;;;70.40;20.40;;;;;;;;;;1708295;82;21573;-61
2022/12/05 13:09:50;;;;;;;76.15;17.98;;;;;;;;;;1707020;82;21587;-61
2022/12/05 13:12:19;;;;;;;79.15;20.50;;;;;;;;;;1707448;82;21482;-61
2022/12/05 13:14:55;;;;;;;33.78;12.43;;;;;;;;;;1708706;82;21653;-62
2022/12/05 13:17:22;;;;;;;23.22;9.38;;;;;;;;;;1708650;82;21592;-62
2022/12/05 13:19:50;;;;;;;62.20;16.65;;;;;;;;;;1708613;82;21731;-61
2022/12/05 13:22:19;;;;;;;44.50;13.13;;;;;;;;;;1708477;82;21570;-61
2022/12/05 13:24:45;;;;;;;39.92;14.87;;;;;;;;;;1707003;82;22316;-61
2022/12/05 13:27:17;;;;;;;33.50;11.65;;;;;;;;;;1708485;83;21589;-63
2022/12/05 13:29:50;;;;;;;76.42;22.32;;;;;;;;;;1708568;82;21130;-62
2022/12/05 13:32:37;;;;;;;61.23;19.27;;;;;;;;;;1707064;82;21552;-62
2022/12/05 13:35:09;;;;;;;62.90;20.08;;;;;;;;;;1706899;83;21119;-61
2022/12/05 13:43:25;;;;;;;47.05;16.77;;;;;;;;;;1707123;82;21505;-62
2022/12/05 13:46:09;;;;;;;54.53;19.37;;;;;;;;;;1708576;82;21668;-62
2022/12/05 13:48:42;;;;;;;82.80;26.97;;;;;;;;;;1708287;82;21897;-61
2022/12/05 13:51:22;;;;;;;72.42;26.05;;;;;;;;;;1707495;82;21096;-62
2022/12/05 13:53:59;;;;;;;55.83;21.42;;;;;;;;;;1707835;82;21609;-62
2022/12/05 13:56:47;;;;;;;59.27;20.48;;;;;;;;;;1708319;82;21109;-61
2022/12/05 13:59:33;;;;;;;39.33;16.85;;;;;;;;;;1707644;82;21254;-61
2022/12/05 14:01:59;;;;;;;55.90;18.87;;;;;;;;;;1723140;82;21602;-61
2022/12/05 14:04:44;;;;;;;52.67;21.60;;;;;;;;;;1774243;80;21667;-62
2022/12/05 14:07:10;;;;;;;62.30;25.30;;;;;;;;;;1774592;80;21993;-61
2022/12/05 14:09:53;;;;;;;41.90;21.65;;;;;;;;;;1775189;80;21291;-62
2022/12/05 14:12:23;;;;;;;60.20;24.70;;;;;;;;;;1774733;80;21469;-62
2022/12/05 14:14:59;;;;;;;57.55;23.87;;;;;;;;;;1774063;80;21614;-62
2022/12/05 14:17:28;;;;;;;42.30;18.95;;;;;;;;;;1774478;80;21496;-62
2022/12/05 14:20:20;;;;;;;42.90;18.75;;;;;;;;;;1774518;80;21503;-61
2022/12/05 14:23:08;;;;;;;46.58;18.25;;;;;;;;;;1720318;80;54850;-61
2022/12/05 14:25:55;;;;;;;43.50;20.65;;;;;;;;;;1759352;81;21084;-61
2022/12/05 14:28:28;;;;;;;44.20;20.57;;;;;;;;;;1760504;81;21116;-62
2022/12/05 14:31:07;;;;;;;51.45;21.52;;;;;;;;;;1760329;81;21706;-61
2022/12/05 14:33:33;;;;;;;42.45;18.25;;;;;;;;;;1759129;81;21084;-61
2022/12/05 14:36:06;;;;;;;39.83;19.12;;;;;;;;;;1759959;80;21547;-62
2022/12/05 14:38:35;;;;;;;57.35;22.45;;;;;;;;;;1759415;80;22417;-62
2022/12/05 14:41:17;;;;;;;85.87;36.08;;;;;;;;;;1759880;81;21643;-62
2022/12/05 14:43:43;;;;;;;115.65;46.28;;;;;;;;;;1756256;80;21555;-62
2022/12/05 14:46:21;;;;;;;64.20;30.72;;;;;;;;;;1736612;81;54862;-61
2022/12/05 14:48:48;;;;;;;57.35;23.90;;;;;;;;;;1727365;82;21090;-62
2022/12/05 14:51:33;;;;;;;69.53;27.35;;;;;;;;;;1727589;82;21466;-61
2022/12/05 14:54:05;;;;;;;65.47;28.02;;;;;;;;;;1727569;82;21625;-61
2022/12/05 14:56:35;;;;;;;114.67;42.15;;;;;;;;;;1741271;82;21685;-63
2022/12/05 14:59:06;;;;;;;94.85;39.65;;;;;;;;;;1729446;82;21686;-62
2022/12/05 15:01:36;;;;;;;78.72;36.80;;;;;;;;;;1730087;81;21111;-62
2022/12/05 15:04:05;;;;;;;69.58;34.53;;;;;;;;;;1755621;80;21616;-61
2022/12/05 15:06:34;;;;;;;76.20;31.60;;;;;;;;;;1743593;81;21562;-62
2022/12/05 15:09:03;;;;;;;105.20;40.50;;;;;;;;;;1723984;83;21596;-63
2022/12/05 15:11:31;;;;;;;84.22;35.48;;;;;;;;;;1743102;81;21590;-62
2022/12/05 15:14:20;;;;;;;75.08;30.52;;;;;;;;;;1727001;81;74987;-61